createdAt,value
2022-10-19T00:00:36.786Z,101314.84
2022-10-19T00:03:28.844Z,101307.72
2022-10-19T00:05:58.389Z,101306.09
2022-10-19T00:08:28.901Z,101307.88
2022-10-19T00:10:58.378Z,101305.22
2022-10-19T00:13:27.576Z,101293.69
2022-10-19T00:15:56.735Z,101295.44
2022-10-19T00:18:25.868Z,101289.38
2022-10-19T00:21:03.276Z,101293.84
2022-10-19T00:23:34.137Z,101298.47
2022-10-19T00:26:03.863Z,101296.69
2022-10-19T00:28:33.378Z,101306.78
2022-10-19T00:31:05.071Z,101309.63
2022-10-19T00:33:34.449Z,101301.63
2022-10-19T00:36:03.556Z,101292.84
2022-10-19T00:38:34.734Z,101283.91
2022-10-19T00:41:04.782Z,101284.03
2022-10-19T00:43:34.180Z,101284.16
2022-10-19T00:46:03.328Z,101286.00
2022-10-19T00:48:34.249Z,101286.88
2022-10-19T00:51:03.930Z,101293.31
2022-10-19T00:53:34.738Z,101290.69
2022-10-19T00:56:08.895Z,101293.47
2022-10-19T00:58:38.394Z,101295.34
2022-10-19T01:01:10.551Z,101297.19
2022-10-19T01:03:40.550Z,101302.56
2022-10-19T01:06:11.401Z,101289.25
2022-10-19T01:08:42.008Z,101290.97
2022-10-19T01:11:24.313Z,101300.78
2022-10-19T01:14:10.791Z,101301.59
2022-10-19T01:16:54.770Z,101288.94
2022-10-19T01:19:55.978Z,101296.16
2022-10-19T01:22:34.831Z,101289.84
2022-10-19T01:25:20.782Z,101302.22
2022-10-19T01:28:04.524Z,101297.69
2022-10-19T01:30:45.904Z,101302.09
2022-10-19T01:33:30.399Z,101301.19
2022-10-19T01:36:09.680Z,101298.59
2022-10-19T01:38:50.323Z,101288.75
2022-10-19T01:41:28.216Z,101291.31
2022-10-19T01:44:02.943Z,101283.91
2022-10-19T01:46:39.204Z,101279.34
2022-10-19T01:49:15.191Z,101275.84
2022-10-19T01:51:50.713Z,101265.06
2022-10-19T01:54:22.663Z,101260.63
2022-10-19T01:56:53.563Z,101265.16
2022-10-19T01:59:23.784Z,101262.47
2022-10-19T02:01:56.041Z,101257.19
2022-10-19T02:04:26.768Z,101260.78
2022-10-19T02:06:56.733Z,101258.34
2022-10-19T02:09:26.287Z,101264.81
2022-10-19T02:11:58.008Z,101272.88
2022-10-19T02:14:32.113Z,101269.38
2022-10-19T02:17:07.186Z,101271.41
2022-10-19T02:19:37.679Z,101275.13
2022-10-19T02:22:07.476Z,101273.41
2022-10-19T02:24:37.015Z,101275.19
2022-10-19T02:27:08.502Z,101274.31
2022-10-19T02:29:39.796Z,101274.38
2022-10-19T02:32:12.221Z,101277.22
2022-10-19T02:34:42.483Z,101282.41
2022-10-19T02:37:11.974Z,101276.91
2022-10-19T02:39:41.969Z,101291.22
2022-10-19T02:42:12.745Z,101282.25
2022-10-19T02:44:48.649Z,101285.75
2022-10-19T02:47:22.905Z,101282.25
2022-10-19T02:49:53.258Z,101283.16
2022-10-19T02:52:22.381Z,101292.16
2022-10-19T02:54:51.597Z,101293.06
2022-10-19T02:57:23.064Z,101289.50
2022-10-19T02:59:53.409Z,101290.38
2022-10-19T03:02:24.392Z,101290.44
2022-10-19T03:04:53.735Z,101288.59
2022-10-19T03:07:23.402Z,101300.19
2022-10-19T03:09:53.003Z,101290.44
2022-10-19T03:12:22.183Z,101295.00
2022-10-19T03:14:51.888Z,101295.91
2022-10-19T03:17:20.972Z,101292.41
2022-10-19T03:19:51.689Z,101304.06
2022-10-19T03:22:20.841Z,101300.50
2022-10-19T03:24:50.301Z,101301.44
2022-10-19T03:27:19.514Z,101311.22
2022-10-19T03:29:48.759Z,101305.03
2022-10-19T03:32:17.950Z,101308.63
2022-10-19T03:34:47.104Z,101307.81
2022-10-19T03:37:17.612Z,101305.13
2022-10-19T03:39:47.073Z,101307.91
2022-10-19T03:42:16.294Z,101315.13
2022-10-19T03:44:45.582Z,101311.56
2022-10-19T03:47:14.706Z,101321.41
2022-10-19T03:49:44.814Z,101325.84
2022-10-19T03:52:13.952Z,101331.19
2022-10-19T03:54:45.000Z,101320.53
2022-10-19T03:57:14.667Z,101328.59
2022-10-19T03:59:43.996Z,101328.59
2022-10-19T04:02:13.158Z,101330.41
2022-10-19T04:04:42.543Z,101327.72
2022-10-19T04:07:11.627Z,101330.41
2022-10-19T04:09:41.473Z,101334.03
2022-10-19T04:12:12.336Z,101340.25
2022-10-19T04:14:56.357Z,101344.66
2022-10-19T04:17:27.195Z,101345.50
2022-10-19T04:19:56.612Z,101346.44
2022-10-19T04:22:25.824Z,101343.75
2022-10-19T04:24:55.883Z,101352.69
2022-10-19T04:27:26.421Z,101354.50
2022-10-19T04:29:55.813Z,101352.69
2022-10-19T04:32:24.972Z,101349.19
2022-10-19T04:34:54.411Z,101351.81
2022-10-19T04:37:23.566Z,101360.84
2022-10-19T04:39:52.965Z,101367.22
2022-10-19T04:42:22.077Z,101363.69
2022-10-19T04:44:52.848Z,101365.56
2022-10-19T04:47:21.933Z,101376.25
2022-10-19T04:49:51.342Z,101372.75
2022-10-19T04:52:20.484Z,101377.28
2022-10-19T04:54:49.761Z,101384.47
2022-10-19T04:57:19.001Z,101382.63
2022-10-19T04:59:48.194Z,101387.09
2022-10-19T05:02:18.708Z,101390.66
2022-10-19T05:04:50.320Z,101397.88
2022-10-19T05:07:19.536Z,101395.25
2022-10-19T05:09:48.698Z,101385.50
2022-10-19T05:12:17.801Z,101394.47
2022-10-19T05:14:47.308Z,101392.84
2022-10-19T05:17:17.806Z,101394.69
2022-10-19T05:19:47.251Z,101397.38
2022-10-19T05:22:16.362Z,101402.84
2022-10-19T05:24:45.690Z,101397.63
2022-10-19T05:27:14.936Z,101405.69
2022-10-19T05:29:44.249Z,101411.19
2022-10-19T05:32:13.467Z,101415.72
2022-10-19T05:34:44.294Z,101413.13
2022-10-19T05:37:13.535Z,101428.34
2022-10-19T05:39:42.881Z,101416.81
2022-10-19T05:42:12.079Z,101422.16
2022-10-19T05:44:41.498Z,101435.59
2022-10-19T05:47:10.922Z,101432.09
2022-10-19T05:49:40.232Z,101439.28
2022-10-19T05:52:10.803Z,101446.44
2022-10-19T05:54:40.218Z,101446.44
2022-10-19T05:57:09.459Z,101452.78
2022-10-19T05:59:38.787Z,101437.66
2022-10-19T06:02:07.948Z,101443.94
2022-10-19T06:04:37.614Z,101451.97
2022-10-19T06:07:06.718Z,101453.81
2022-10-19T06:09:37.539Z,101454.72
2022-10-19T06:12:07.084Z,101458.28
2022-10-19T06:14:36.512Z,101460.97
2022-10-19T06:17:06.748Z,101463.63
2022-10-19T06:19:36.209Z,101477.00
2022-10-19T06:22:05.540Z,101477.94
2022-10-19T06:24:36.446Z,101483.28
2022-10-19T06:27:06.742Z,101486.88
2022-10-19T06:29:36.504Z,101485.13
2022-10-19T06:32:05.721Z,101486.84
2022-10-19T06:34:35.067Z,101486.81
2022-10-19T06:37:04.257Z,101495.72
2022-10-19T06:39:33.539Z,101500.22
2022-10-19T06:42:04.075Z,101504.75
2022-10-19T06:44:33.485Z,101499.47
2022-10-19T06:47:02.653Z,101509.28
2022-10-19T06:49:32.211Z,101510.22
2022-10-19T06:52:01.423Z,101525.38
2022-10-19T06:54:30.813Z,101527.16
2022-10-19T06:57:00.593Z,101532.56
2022-10-19T06:59:31.469Z,101534.41
2022-10-19T07:02:00.798Z,101541.47
2022-10-19T07:04:30.542Z,101547.72
2022-10-19T07:07:00.517Z,101555.72
2022-10-19T07:09:30.011Z,101554.72
2022-10-19T07:11:59.166Z,101567.19
2022-10-19T07:14:31.642Z,101564.56
2022-10-19T07:17:01.558Z,101576.94
2022-10-19T07:19:32.430Z,101564.41
2022-10-19T07:22:01.689Z,101575.94
2022-10-19T07:24:31.157Z,101585.75
2022-10-19T07:27:00.335Z,101584.84
2022-10-19T07:29:31.067Z,101591.97
2022-10-19T07:32:00.325Z,101595.53
2022-10-19T07:34:29.870Z,101593.78
2022-10-19T07:36:59.059Z,101600.00
2022-10-19T07:39:28.536Z,101600.88
2022-10-19T07:41:57.772Z,101600.78
2022-10-19T07:44:27.907Z,101603.47
2022-10-19T07:46:59.291Z,101607.91
2022-10-19T07:49:30.213Z,101615.00
2022-10-19T07:51:59.319Z,101610.59
2022-10-19T07:54:28.947Z,101615.09
2022-10-19T07:56:58.076Z,101611.47
2022-10-19T07:59:27.632Z,101617.72
2022-10-19T08:01:59.311Z,101619.56
2022-10-19T08:04:59.103Z,101623.19
2022-10-19T08:07:18.260Z,101616.94
2022-10-19T08:09:53.330Z,101621.34
2022-10-19T08:12:23.090Z,101615.09
2022-10-19T08:14:52.410Z,101618.59
2022-10-19T08:17:23.290Z,101628.25
2022-10-19T08:19:52.710Z,101620.19
2022-10-19T08:22:21.811Z,101616.59
2022-10-19T08:24:51.496Z,101627.19
2022-10-19T08:27:20.595Z,101628.91
2022-10-19T08:29:50.034Z,101643.13
2022-10-19T08:32:19.723Z,101642.09
2022-10-19T08:34:50.571Z,101647.34
2022-10-19T08:37:32.549Z,101644.66
2022-10-19T08:40:18.029Z,101656.19
2022-10-19T08:42:57.155Z,101652.59
2022-10-19T08:48:34.023Z,101659.66
2022-10-19T08:51:09.309Z,101656.06
2022-10-19T08:53:45.128Z,101656.06
2022-10-19T08:56:49.356Z,101662.28
2022-10-19T08:59:27.276Z,101674.72
2022-10-19T09:01:59.403Z,101680.00
2022-10-19T09:04:34.001Z,101679.13
2022-10-19T09:07:25.443Z,101681.75
2022-10-19T09:09:59.472Z,101678.16
2022-10-19T09:12:44.223Z,101676.31
2022-10-19T09:15:16.647Z,101681.66
2022-10-19T09:17:46.418Z,101683.41
2022-10-19T09:20:17.051Z,101697.69
2022-10-19T09:22:52.179Z,101694.03
2022-10-19T09:25:24.147Z,101701.03
2022-10-19T09:28:04.725Z,101700.97
2022-10-19T09:30:39.541Z,101700.97
2022-10-19T09:33:29.647Z,101710.78
2022-10-19T09:36:02.262Z,101719.69
2022-10-19T09:38:33.600Z,101716.16
2022-10-19T09:41:16.819Z,101713.44
2022-10-19T09:43:53.589Z,101723.25
2022-10-19T09:46:38.872Z,101728.44
2022-10-19T09:49:08.636Z,101730.94
2022-10-19T09:51:46.362Z,101745.94
2022-10-19T09:54:32.395Z,101744.91
2022-10-19T09:57:01.851Z,101741.19
2022-10-19T09:59:35.044Z,101746.47
2022-10-19T10:02:31.554Z,101746.41
2022-10-19T10:05:07.628Z,101749.97
2022-10-19T10:07:39.610Z,101747.31
2022-10-19T10:10:28.093Z,101742.91
2022-10-19T10:13:00.926Z,101752.72
2022-10-19T10:15:37.710Z,101750.00
2022-10-19T10:18:07.152Z,101757.13
2022-10-19T10:20:36.396Z,101757.03
2022-10-19T10:23:07.216Z,101757.88
2022-10-19T10:25:38.858Z,101772.94
2022-10-19T10:28:20.625Z,101780.03
2022-10-19T10:30:54.699Z,101775.56
2022-10-19T10:33:40.751Z,101774.69
2022-10-19T10:36:15.068Z,101779.22
2022-10-19T10:38:48.613Z,101767.66
2022-10-19T10:41:23.224Z,101773.09
2022-10-19T10:43:58.515Z,101773.97
2022-10-19T10:46:35.801Z,101772.25
2022-10-19T10:49:07.772Z,101772.19
2022-10-19T10:51:49.196Z,101773.03
2022-10-19T10:54:22.846Z,101776.53
2022-10-19T10:57:20.381Z,101786.41
2022-10-19T10:59:56.464Z,101782.00
2022-10-19T11:02:36.809Z,101790.88
2022-10-19T11:05:12.193Z,101789.97
2022-10-19T11:07:45.766Z,101777.47
2022-10-19T11:10:25.548Z,101796.22
2022-10-19T11:13:05.984Z,101796.22
2022-10-19T11:15:47.240Z,101794.44
2022-10-19T11:18:22.697Z,101787.25
2022-10-19T11:21:02.406Z,101784.56
2022-10-19T11:23:55.338Z,101787.25
2022-10-19T11:26:43.019Z,101776.59
2022-10-19T11:29:28.950Z,101788.31
2022-10-19T11:31:59.370Z,101783.91
2022-10-19T11:34:50.139Z,101791.13
2022-10-19T11:37:27.597Z,101797.25
2022-10-19T11:40:11.959Z,101796.28
2022-10-19T11:42:50.973Z,101797.19
2022-10-19T11:45:33.573Z,101793.56
2022-10-19T11:48:18.345Z,101789.94
2022-10-19T11:51:04.106Z,101793.44
2022-10-19T11:53:58.692Z,101791.59
2022-10-19T11:56:45.037Z,101793.28
2022-10-19T11:59:35.757Z,101791.47
2022-10-19T12:02:22.627Z,101803.00
2022-10-19T12:04:58.569Z,101793.13
2022-10-19T12:07:46.473Z,101795.81
2022-10-19T12:10:25.896Z,101807.28
2022-10-19T12:12:59.639Z,101813.47
2022-10-19T12:15:32.706Z,101818.78
2022-10-19T12:18:12.791Z,101825.91
2022-10-19T12:20:48.438Z,101826.94
2022-10-19T12:23:26.053Z,101835.09
2022-10-19T12:25:58.606Z,101824.50
2022-10-19T12:28:32.196Z,101831.66
2022-10-19T12:31:04.013Z,101825.50
2022-10-19T12:33:46.465Z,101823.81
2022-10-19T12:36:26.557Z,101831.81
2022-10-19T12:39:05.705Z,101817.56
2022-10-19T12:41:45.855Z,101821.13
2022-10-19T12:44:48.134Z,101823.72
2022-10-19T12:47:20.749Z,101832.53
2022-10-19T12:49:52.863Z,101829.78
2022-10-19T12:52:39.306Z,101832.34
2022-10-19T12:55:29.812Z,101827.88
2022-10-19T12:58:02.940Z,101835.03
2022-10-19T13:00:34.647Z,101831.47
2022-10-19T13:03:08.204Z,101838.69
2022-10-19T13:05:40.155Z,101835.16
2022-10-19T13:08:12.352Z,101841.53
2022-10-19T13:11:03.706Z,101843.44
2022-10-19T13:14:04.879Z,101839.94
2022-10-19T13:16:57.589Z,101842.63
2022-10-19T13:19:28.247Z,101839.94
2022-10-19T13:22:26.975Z,101852.47
2022-10-19T13:25:27.157Z,101855.88
2022-10-19T13:28:01.307Z,101858.38
2022-10-19T13:31:04.975Z,101851.75
2022-10-19T13:33:51.090Z,101868.28
2022-10-19T13:36:22.112Z,101869.56
2022-10-19T13:39:08.597Z,101875.97
2022-10-19T13:41:57.296Z,101875.13
2022-10-19T13:44:35.517Z,101878.97
2022-10-19T13:47:43.614Z,101878.66
2022-10-19T13:50:30.401Z,101883.91
2022-10-19T13:53:34.111Z,101891.13
2022-10-19T13:56:32.656Z,101877.88
2022-10-19T13:59:43.608Z,101878.22
2022-10-19T14:02:56.922Z,101887.56
2022-10-19T14:05:54.522Z,101895.81
2022-10-19T14:08:41.869Z,101888.84
2022-10-19T14:11:19.199Z,101899.47
2022-10-19T14:14:08.057Z,101901.25
2022-10-19T14:16:45.999Z,101910.38
2022-10-19T14:19:21.056Z,101906.13
2022-10-19T14:21:50.520Z,101902.78
2022-10-19T14:24:28.846Z,101900.38
2022-10-19T14:27:01.570Z,101906.94
2022-10-19T14:29:32.519Z,101907.22
2022-10-19T14:32:02.012Z,101911.84
2022-10-19T14:34:31.631Z,101898.69
2022-10-19T14:37:01.259Z,101899.78
2022-10-19T14:39:34.267Z,101911.47
2022-10-19T14:42:11.093Z,101916.03
2022-10-19T14:44:43.217Z,101914.31
2022-10-19T14:47:20.547Z,101908.09
2022-10-19T14:49:50.425Z,101917.16
2022-10-19T14:52:25.515Z,101919.06
2022-10-19T14:54:56.963Z,101920.16
2022-10-19T14:57:30.982Z,101923.03
2022-10-19T15:00:03.257Z,101920.56
2022-10-19T15:02:39.990Z,101923.50
2022-10-19T15:05:20.404Z,101919.28
2022-10-19T15:07:50.355Z,101915.06
2022-10-19T15:10:24.280Z,101918.00
2022-10-19T15:13:02.623Z,101920.97
2022-10-19T15:15:34.867Z,101921.22
2022-10-19T15:18:06.797Z,101914.41
2022-10-19T15:20:49.290Z,101923.56
2022-10-19T15:23:39.513Z,101923.84
2022-10-19T15:26:18.367Z,101921.44
2022-10-19T15:28:50.218Z,101923.44
2022-10-19T15:31:22.070Z,101929.84
2022-10-19T15:33:54.372Z,101920.16
2022-10-19T15:36:25.537Z,101923.03
2022-10-19T15:39:18.460Z,101926.81
2022-10-19T15:41:53.736Z,101927.03
2022-10-19T15:44:41.570Z,101928.13
2022-10-19T15:47:23.291Z,101931.81
2022-10-19T15:49:59.265Z,101948.03
2022-10-19T15:52:30.161Z,101940.13
2022-10-19T15:55:01.495Z,101947.34
2022-10-19T15:57:33.695Z,101956.28
2022-10-19T16:00:13.581Z,101952.84
2022-10-19T16:02:44.285Z,101952.91
2022-10-19T16:05:13.288Z,101964.47
2022-10-19T16:07:43.151Z,101952.97
2022-10-19T16:10:19.818Z,101965.44
2022-10-19T16:12:49.324Z,101955.69
2022-10-19T16:15:23.493Z,101945.03
2022-10-19T16:17:55.401Z,101943.31
2022-10-19T16:20:26.312Z,101957.53
2022-10-19T16:22:55.876Z,101956.72
2022-10-19T16:25:25.156Z,101967.41
2022-10-19T16:27:55.327Z,101969.22
2022-10-19T16:30:26.374Z,101971.88
2022-10-19T16:32:56.146Z,101969.28
2022-10-19T16:35:25.527Z,101972.91
2022-10-19T16:37:55.074Z,101976.50
2022-10-19T16:40:24.674Z,101982.78
2022-10-19T16:42:56.727Z,101976.56
2022-10-19T16:45:27.460Z,101987.28
2022-10-19T16:47:57.131Z,101977.56
2022-10-19T16:50:26.646Z,101990.00
2022-10-19T16:53:10.199Z,101983.78
2022-10-19T16:55:40.713Z,101993.59
2022-10-19T16:58:10.212Z,101992.69
2022-10-19T17:00:40.948Z,101998.06
2022-10-19T17:03:10.282Z,102002.50
2022-10-19T17:05:40.352Z,102008.72
2022-10-19T17:08:12.043Z,101989.19
2022-10-19T17:10:41.378Z,101992.72
2022-10-19T17:13:10.718Z,101996.25
2022-10-19T17:15:43.280Z,101998.03
2022-10-19T17:18:13.122Z,101998.97
2022-10-19T17:20:42.488Z,102009.63
2022-10-19T17:23:11.606Z,101988.34
2022-10-19T17:25:49.033Z,102007.06
2022-10-19T17:28:18.474Z,102008.03
2022-10-19T17:30:49.241Z,102019.63
2022-10-19T17:33:19.669Z,102010.78
2022-10-19T17:35:48.991Z,102017.97
2022-10-19T17:38:18.254Z,102023.31
2022-10-19T17:40:47.536Z,102020.69
2022-10-19T17:43:17.134Z,102018.03
2022-10-19T17:45:47.711Z,102016.25
2022-10-19T17:48:17.421Z,102030.50
2022-10-19T17:50:46.631Z,102025.19
2022-10-19T17:53:15.933Z,102028.75
2022-10-19T17:55:45.781Z,102027.84
2022-10-19T17:58:15.388Z,102032.28
2022-10-19T18:00:44.553Z,102041.22
2022-10-19T18:03:15.415Z,102039.47
2022-10-19T18:05:44.636Z,102037.69
2022-10-19T18:08:13.931Z,102044.81
2022-10-19T18:10:43.435Z,102035.91
2022-10-19T18:13:12.521Z,102038.56
2022-10-19T18:15:41.825Z,102039.47
2022-10-19T18:18:11.127Z,102043.03
2022-10-19T18:20:42.651Z,102038.59
2022-10-19T18:23:12.390Z,102038.59
2022-10-19T18:25:53.821Z,102039.50
2022-10-19T18:28:24.041Z,102035.97
2022-10-19T18:30:53.239Z,102041.31
2022-10-19T18:33:23.490Z,102042.19
2022-10-19T18:35:58.643Z,102040.47
2022-10-19T18:38:28.265Z,102053.78
2022-10-19T18:41:01.827Z,102044.03
2022-10-19T18:43:31.835Z,102048.47
2022-10-19T18:46:01.903Z,102056.53
2022-10-19T18:48:31.993Z,102037.88
2022-10-19T18:51:06.247Z,102041.47
2022-10-19T18:53:36.826Z,102049.47
2022-10-19T18:56:09.488Z,102057.50
2022-10-19T18:58:39.534Z,102063.72
2022-10-19T19:01:11.262Z,102056.63
2022-10-19T19:03:42.362Z,102058.41
2022-10-19T19:06:15.251Z,102052.19
2022-10-19T19:08:45.857Z,102054.88
2022-10-19T19:11:16.993Z,102056.66
2022-10-19T19:13:50.636Z,102056.66
2022-10-19T19:16:20.103Z,102062.88
2022-10-19T19:18:49.691Z,102068.22
2022-10-19T19:21:23.325Z,102062.88
2022-10-19T19:23:53.905Z,102066.44
2022-10-19T19:26:26.482Z,102069.09
2022-10-19T19:28:57.287Z,102072.66
2022-10-19T19:31:27.238Z,102072.69
2022-10-19T19:33:56.983Z,102076.22
2022-10-19T19:36:28.529Z,102078.91
2022-10-19T19:38:59.196Z,102074.47
2022-10-19T19:41:29.230Z,102082.50
2022-10-19T19:43:59.051Z,102078.06
2022-10-19T19:46:28.112Z,102074.50
2022-10-19T19:49:02.386Z,102067.47
2022-10-19T19:51:34.204Z,102069.25
2022-10-19T19:54:04.069Z,102070.16
2022-10-19T19:56:33.275Z,102083.50
2022-10-19T19:59:04.573Z,102080.84
2022-10-19T20:01:35.886Z,102078.25
2022-10-19T20:04:06.301Z,102080.91
2022-10-19T20:06:38.756Z,102075.63
2022-10-19T20:09:10.783Z,102080.97
2022-10-19T20:11:42.741Z,102070.38
2022-10-19T20:14:12.679Z,102073.03
2022-10-19T20:16:41.998Z,102074.81
2022-10-19T20:19:14.131Z,102084.59
2022-10-19T20:21:45.814Z,102079.31
2022-10-19T20:24:15.396Z,102075.78
2022-10-19T20:26:44.517Z,102075.81
2022-10-19T20:29:14.104Z,102080.25
2022-10-19T20:31:43.324Z,102080.28
2022-10-19T20:34:14.332Z,102089.16
2022-10-19T20:36:45.301Z,102079.41
2022-10-19T20:39:15.219Z,102087.41
2022-10-19T20:41:44.497Z,102091.84
2022-10-19T20:44:13.811Z,102092.75
2022-10-19T20:46:43.270Z,102093.66
2022-10-19T20:49:13.886Z,102093.66
2022-10-19T20:51:43.304Z,102097.19
2022-10-19T20:54:14.603Z,102108.69
2022-10-19T20:56:44.083Z,102107.78
2022-10-19T20:59:14.530Z,102105.16
2022-10-19T21:01:45.382Z,102106.03
2022-10-19T21:04:17.059Z,102113.09
2022-10-19T21:06:48.088Z,102113.13
2022-10-19T21:09:21.168Z,102111.34
2022-10-19T21:11:52.412Z,102112.25
2022-10-19T21:14:27.147Z,102101.63
2022-10-19T21:16:58.886Z,102108.69
2022-10-19T21:19:30.942Z,102109.56
2022-10-19T21:22:03.337Z,102111.38
2022-10-19T21:24:36.753Z,102107.78
2022-10-19T21:27:09.287Z,102105.16
2022-10-19T21:29:39.194Z,102106.03
2022-10-19T21:32:08.312Z,102104.25
2022-10-19T21:34:37.782Z,102098.94
2022-10-19T21:37:06.908Z,102101.59
2022-10-19T21:39:39.570Z,102106.94
2022-10-19T21:42:08.817Z,102102.47
2022-10-19T21:44:38.111Z,102103.38
2022-10-19T21:47:07.975Z,102105.16
2022-10-19T21:49:37.512Z,102098.94
2022-10-19T21:52:06.941Z,102099.81
2022-10-19T21:54:37.580Z,102097.16
2022-10-19T21:57:06.796Z,102095.41
2022-10-19T21:59:36.131Z,102092.75
2022-10-19T22:02:05.487Z,102102.47
2022-10-19T22:04:34.800Z,102103.38
2022-10-19T22:07:05.264Z,102109.59
2022-10-19T22:09:34.850Z,102104.28
2022-10-19T22:12:05.575Z,102096.31
2022-10-19T22:14:35.062Z,102102.50
2022-10-19T22:17:04.186Z,102100.72
2022-10-19T22:19:33.690Z,102105.16
2022-10-19T22:22:03.192Z,102107.81
2022-10-19T22:24:32.305Z,102108.66
2022-10-19T22:27:01.552Z,102118.44
2022-10-19T22:29:32.670Z,102110.47
2022-10-19T22:32:01.988Z,102106.91
2022-10-19T22:34:32.345Z,102109.56
2022-10-19T22:37:01.631Z,102118.44
2022-10-19T22:39:31.149Z,102118.44
2022-10-19T22:42:00.402Z,102114.00
2022-10-19T22:44:31.213Z,102109.59
2022-10-19T22:47:00.926Z,102107.78
2022-10-19T22:49:30.276Z,102114.88
2022-10-19T22:51:59.220Z,102121.06
2022-10-19T22:54:28.423Z,102116.66
2022-10-19T22:56:57.816Z,102120.19
2022-10-19T22:59:27.138Z,102128.16
2022-10-19T23:01:58.023Z,102124.63
2022-10-19T23:04:27.376Z,102129.06
2022-10-19T23:06:56.508Z,102121.97
2022-10-19T23:09:25.716Z,102114.91
2022-10-19T23:11:54.926Z,102118.44
2022-10-19T23:14:24.141Z,102121.97
2022-10-19T23:16:53.226Z,102117.56
2022-10-19T23:19:23.983Z,102119.34
2022-10-19T23:21:53.084Z,102118.47
2022-10-19T23:24:22.460Z,102128.19
2022-10-19T23:26:53.598Z,102127.28
2022-10-19T23:29:23.156Z,102124.66
2022-10-19T23:31:52.184Z,102126.41
2022-10-19T23:34:22.879Z,102134.38
2022-10-19T23:36:51.874Z,102127.31
2022-10-19T23:39:21.045Z,102126.41
2022-10-19T23:41:50.050Z,102129.06
2022-10-19T23:44:19.403Z,102133.50
2022-10-19T23:46:48.410Z,102134.38
2022-10-19T23:49:17.634Z,102131.69
2022-10-19T23:51:48.102Z,102135.25
2022-10-19T23:54:17.399Z,102133.47
2022-10-19T23:56:46.363Z,102131.72
2022-10-19T23:59:15.804Z,102134.38
